Portada
METAR-TAF:

METAR-TAF

Aeropuertos :

Independence, Kansas, Estados Unidos

latitud: 37-09-30N, longitud: 095-46-42W, altitud: 251 m

Observación

El informe se hizo hace 26 minutos, a las 07:55 UTC
Viento 3 kt del este
Temperatura 25°C
Humedad 79%
Presión 1014 hPa
Visibilidad: 16.1 km
Cielo despejado

METAR: KIDP 060755Z AUTO 09003KT 10SM CLR 25/21 A2994 RMK AO2 LTG DSNT N T02460213

Hora: 03:21 (08:21 UTC)


TAF: falta

Observaciones y pronósticos meteorológicos de más de 4000 aeropuertos (mensajes METAR y TAF).

Los puntos amarillos y rojos representan las estaciones disponibles.

Ponga el ratón en el punto deseado para ver el nombre de la estación.

Haga clic para ver las observaciones y los pronósticos meteorológicos.

Para cambiar el mapa : haga clic en los botones verdes con una cruz de color negro para hacer un zoom, en el botón verde con un guión para alejar o en las flechas verdes para mapas adyacentes.


METAR-TAF: